Time;durP1;ratioP1;P1;durP2;ratioP2;P2;SDS_P1;SDS_P2;PMS_P1;PMS_P2;Temp;Humidity;BMP_temperature;BMP_pressure;BME280_temperature;BME280_humidity;BME280_pressure;Samples;Min_cycle;Max_cycle;Signal;HPM_P1;HPM_P2
2022/07/03 00:02:15;;;;;;;60.60;4.87;;;;;;;;;;5072510;28;20478;-65
2022/07/03 00:04:44;;;;;;;59.77;3.97;;;;;;;;;;5072632;28;20791;-65
2022/07/03 00:07:12;;;;;;;59.57;4.23;;;;;;;;;;5072260;28;20455;-66
2022/07/03 00:09:39;;;;;;;60.27;4.00;;;;;;;;;;5072448;28;20447;-65
2022/07/03 00:12:06;;;;;;;60.10;4.13;;;;;;;;;;5072583;28;20446;-65
2022/07/03 00:14:34;;;;;;;59.70;3.83;;;;;;;;;;5072153;28;21030;-65
2022/07/03 00:17:01;;;;;;;59.40;3.80;;;;;;;;;;5072619;28;20485;-65
2022/07/03 00:19:28;;;;;;;65.77;4.50;;;;;;;;;;5054420;28;20831;-65
2022/07/03 00:21:59;;;;;;;61.63;3.73;;;;;;;;;;5072331;28;20439;-65
2022/07/03 00:24:28;;;;;;;61.30;4.43;;;;;;;;;;5072182;28;20467;-66
2022/07/03 00:26:56;;;;;;;59.63;3.80;;;;;;;;;;5072172;28;20466;-65
2022/07/03 00:29:24;;;;;;;60.13;3.93;;;;;;;;;;5071866;28;20443;-65
2022/07/03 00:31:51;;;;;;;60.73;4.93;;;;;;;;;;5072127;28;20450;-65
2022/07/03 00:34:21;;;;;;;60.93;4.00;;;;;;;;;;5072050;28;20475;-65
2022/07/03 00:36:49;;;;;;;59.60;4.00;;;;;;;;;;5070813;28;20457;-65
2022/07/03 00:39:19;;;;;;;60.10;4.10;;;;;;;;;;5071794;28;20490;-65
2022/07/03 00:41:47;;;;;;;60.00;3.93;;;;;;;;;;5071953;28;20444;-66
2022/07/03 00:44:15;;;;;;;60.10;4.00;;;;;;;;;;5071046;28;20480;-66
2022/07/03 00:46:43;;;;;;;59.90;3.80;;;;;;;;;;5072313;28;20236;-66
2022/07/03 00:49:11;;;;;;;59.57;4.00;;;;;;;;;;5071674;28;20459;-66
2022/07/03 00:51:40;;;;;;;60.00;3.67;;;;;;;;;;5072035;28;20443;-66
2022/07/03 00:54:09;;;;;;;59.90;4.10;;;;;;;;;;5071577;28;20467;-66
2022/07/03 00:56:39;;;;;;;59.77;3.57;;;;;;;;;;5071832;28;20447;-66
2022/07/03 00:59:06;;;;;;;60.50;4.30;;;;;;;;;;5071791;28;20446;-66
2022/07/03 01:01:34;;;;;;;59.87;3.87;;;;;;;;;;5071960;28;20534;-66
2022/07/03 01:04:05;;;;;;;59.83;3.93;;;;;;;;;;5071632;28;20833;-66
2022/07/03 01:06:39;;;;;;;60.30;4.17;;;;;;;;;;5071658;28;20478;-67
2022/07/03 01:09:08;;;;;;;60.93;3.83;;;;;;;;;;5071628;28;20451;-66
2022/07/03 01:11:40;;;;;;;60.40;4.33;;;;;;;;;;5069914;28;21035;-66
2022/07/03 01:14:17;;;;;;;59.30;3.63;;;;;;;;;;5071655;28;20830;-66
2022/07/03 01:16:53;;;;;;;60.00;3.60;;;;;;;;;;5071540;28;20493;-66
2022/07/03 01:19:30;;;;;;;59.97;3.73;;;;;;;;;;5071549;28;20838;-66
2022/07/03 01:22:01;;;;;;;60.57;4.13;;;;;;;;;;5071723;28;20469;-66
2022/07/03 01:24:53;;;;;;;60.10;3.67;;;;;;;;;;5071452;28;20818;-66
2022/07/03 01:27:24;;;;;;;59.77;3.80;;;;;;;;;;5071535;28;20443;-66
2022/07/03 01:29:56;;;;;;;63.83;4.57;;;;;;;;;;5071702;28;20435;-66
2022/07/03 01:32:25;;;;;;;60.97;3.93;;;;;;;;;;5071295;28;20957;-66
2022/07/03 01:34:54;;;;;;;61.57;4.60;;;;;;;;;;5071451;28;20441;-66
2022/07/03 01:37:25;;;;;;;59.77;3.73;;;;;;;;;;5071059;28;20444;-66
2022/07/03 01:39:54;;;;;;;61.17;3.63;;;;;;;;;;5070132;28;20948;-67
2022/07/03 01:42:24;;;;;;;60.30;4.50;;;;;;;;;;5071399;28;20875;-66
2022/07/03 01:44:55;;;;;;;59.90;4.00;;;;;;;;;;5071167;28;20622;-66
2022/07/03 01:47:26;;;;;;;60.40;3.93;;;;;;;;;;5070713;28;20446;-66
2022/07/03 01:49:55;;;;;;;59.57;3.77;;;;;;;;;;5071190;28;20443;-66
2022/07/03 01:52:22;;;;;;;60.20;3.63;;;;;;;;;;5069996;28;20504;-66
2022/07/03 01:54:51;;;;;;;59.57;3.63;;;;;;;;;;5071242;28;20947;-66
2022/07/03 01:57:18;;;;;;;60.80;3.73;;;;;;;;;;5074316;28;20461;-66
2022/07/03 01:59:47;;;;;;;61.60;4.20;;;;;;;;;;5075003;28;20430;-66
2022/07/03 02:02:19;;;;;;;59.57;3.87;;;;;;;;;;5074792;28;20530;-67
2022/07/03 02:04:55;;;;;;;59.90;4.00;;;;;;;;;;5075207;28;20788;-66
2022/07/03 02:07:26;;;;;;;59.93;3.83;;;;;;;;;;5074737;28;20447;-66
2022/07/03 02:09:59;;;;;;;59.90;4.00;;;;;;;;;;5075052;28;20448;-66
2022/07/03 02:12:29;;;;;;;60.57;4.43;;;;;;;;;;5074620;28;20458;-66
2022/07/03 02:15:03;;;;;;;59.70;3.90;;;;;;;;;;5074642;28;20450;-66
2022/07/03 02:17:36;;;;;;;59.57;4.30;;;;;;;;;;5074266;28;20820;-66
2022/07/03 02:20:07;;;;;;;59.87;4.30;;;;;;;;;;5074526;28;20947;-66
2022/07/03 02:22:35;;;;;;;59.63;3.57;;;;;;;;;;5073246;28;21219;-66
2022/07/03 02:25:04;;;;;;;59.77;3.90;;;;;;;;;;5074464;28;20538;-66
2022/07/03 02:27:35;;;;;;;60.50;4.63;;;;;;;;;;5074139;28;20447;-66
2022/07/03 02:30:07;;;;;;;60.17;4.60;;;;;;;;;;5074717;28;20532;-66
2022/07/03 02:32:38;;;;;;;61.10;4.20;;;;;;;;;;5072886;28;20468;-66
2022/07/03 02:35:06;;;;;;;59.67;4.10;;;;;;;;;;5074411;28;20452;-66
2022/07/03 02:37:34;;;;;;;59.60;4.40;;;;;;;;;;5074134;28;20449;-66
2022/07/03 02:40:05;;;;;;;60.20;4.20;;;;;;;;;;5073134;28;20478;-67
2022/07/03 02:42:37;;;;;;;60.30;4.20;;;;;;;;;;5074113;28;20967;-66
2022/07/03 02:45:06;;;;;;;59.40;3.87;;;;;;;;;;5073791;28;20458;-66
2022/07/03 02:47:37;;;;;;;59.60;4.10;;;;;;;;;;5074024;28;20454;-66
2022/07/03 02:50:05;;;;;;;59.90;4.10;;;;;;;;;;5074271;28;20821;-66
2022/07/03 02:52:36;;;;;;;59.70;3.80;;;;;;;;;;5073845;28;20447;-66
2022/07/03 02:55:06;;;;;;;59.60;3.70;;;;;;;;;;5073973;28;20454;-67
2022/07/03 02:57:39;;;;;;;59.60;3.87;;;;;;;;;;5073860;28;20819;-66
2022/07/03 03:00:10;;;;;;;60.20;3.57;;;;;;;;;;5073979;28;20933;-66
2022/07/03 03:02:54;;;;;;;59.80;4.10;;;;;;;;;;5072559;28;20458;-66
2022/07/03 03:05:28;;;;;;;60.30;4.53;;;;;;;;;;5073751;28;20485;-66
2022/07/03 03:08:04;;;;;;;59.57;3.70;;;;;;;;;;5072805;28;20447;-66
2022/07/03 03:10:33;;;;;;;60.27;4.43;;;;;;;;;;5073714;28;20453;-66
2022/07/03 03:13:04;;;;;;;59.80;3.60;;;;;;;;;;5073601;28;20471;-66
2022/07/03 03:15:34;;;;;;;59.30;3.70;;;;;;;;;;5073525;28;20513;-66
2022/07/03 03:18:03;;;;;;;60.20;4.37;;;;;;;;;;5073448;28;20890;-66
2022/07/03 03:20:33;;;;;;;60.37;4.33;;;;;;;;;;5072442;28;20447;-66
2022/07/03 03:23:09;;;;;;;60.70;4.23;;;;;;;;;;5073398;28;20470;-66
2022/07/03 03:25:37;;;;;;;59.70;3.80;;;;;;;;;;5072057;28;20546;-66
2022/07/03 03:28:04;;;;;;;59.90;4.03;;;;;;;;;;5073251;28;21165;-67
2022/07/03 03:30:33;;;;;;;59.90;3.70;;;;;;;;;;5073174;28;20449;-66
2022/07/03 03:33:02;;;;;;;61.63;3.63;;;;;;;;;;5073185;28;20473;-66
2022/07/03 03:35:29;;;;;;;60.17;4.33;;;;;;;;;;5073350;28;20526;-66
2022/07/03 03:37:57;;;;;;;61.00;4.13;;;;;;;;;;5072898;28;20450;-66
2022/07/03 03:40:25;;;;;;;60.90;4.20;;;;;;;;;;5073562;28;20475;-66
2022/07/03 03:42:53;;;;;;;64.33;3.80;;;;;;;;;;5073271;28;20543;-67
2022/07/03 03:45:21;;;;;;;60.30;4.20;;;;;;;;;;5072785;28;20455;-66
2022/07/03 03:47:51;;;;;;;63.97;3.80;;;;;;;;;;5072660;28;20954;-67
2022/07/03 03:50:21;;;;;;;61.03;4.20;;;;;;;;;;5071688;28;20452;-66
2022/07/03 03:52:49;;;;;;;59.80;4.17;;;;;;;;;;5072668;28;20463;-67
2022/07/03 03:55:17;;;;;;;59.77;3.87;;;;;;;;;;5073041;28;20546;-66
2022/07/03 03:57:46;;;;;;;59.80;3.97;;;;;;;;;;5072726;28;20475;-67
2022/07/03 04:00:14;;;;;;;60.17;4.20;;;;;;;;;;5071368;28;20963;-66
2022/07/03 04:02:43;;;;;;;62.57;3.83;;;;;;;;;;5072465;28;20454;-67
2022/07/03 04:05:13;;;;;;;59.50;3.70;;;;;;;;;;5072555;28;20439;-67
2022/07/03 04:07:40;;;;;;;59.97;4.00;;;;;;;;;;5072436;28;20482;-66
2022/07/03 04:10:09;;;;;;;59.60;3.70;;;;;;;;;;5072686;28;20456;-67
2022/07/03 04:12:37;;;;;;;60.10;4.40;;;;;;;;;;5071091;28;20447;-67
2022/07/03 04:15:05;;;;;;;59.63;3.97;;;;;;;;;;5071309;28;20453;-66
2022/07/03 04:17:33;;;;;;;60.30;4.00;;;;;;;;;;5072184;28;21009;-66
2022/07/03 04:20:00;;;;;;;61.07;3.77;;;;;;;;;;5072251;28;20448;-67
2022/07/03 04:22:30;;;;;;;59.90;4.10;;;;;;;;;;5072312;28;20833;-66
2022/07/03 04:24:59;;;;;;;60.17;3.80;;;;;;;;;;5072439;28;20451;-67
2022/07/03 04:27:29;;;;;;;59.90;3.90;;;;;;;;;;5071875;28;20548;-66
2022/07/03 04:29:56;;;;;;;60.10;4.40;;;;;;;;;;5072265;28;20457;-66
2022/07/03 04:32:24;;;;;;;60.70;4.27;;;;;;;;;;5071976;28;20453;-66
2022/07/03 04:34:51;;;;;;;59.97;3.70;;;;;;;;;;5070888;28;20448;-66
2022/07/03 04:37:18;;;;;;;59.60;4.00;;;;;;;;;;5071856;28;20445;-66
2022/07/03 04:39:46;;;;;;;59.07;3.27;;;;;;;;;;5072281;28;20465;-66
2022/07/03 04:42:14;;;;;;;61.33;4.43;;;;;;;;;;5071688;28;20449;-67
2022/07/03 04:44:44;;;;;;;59.73;3.90;;;;;;;;;;5071836;28;20486;-66
2022/07/03 04:47:12;;;;;;;59.27;3.53;;;;;;;;;;5071549;28;20580;-66
2022/07/03 04:49:42;;;;;;;60.10;3.50;;;;;;;;;;5071654;28;20482;-67
2022/07/03 04:52:10;;;;;;;59.83;3.80;;;;;;;;;;5072323;28;20445;-66
2022/07/03 04:54:38;;;;;;;60.87;3.57;;;;;;;;;;5071832;28;20472;-67
2022/07/03 04:57:10;;;;;;;59.60;3.63;;;;;;;;;;5071651;28;20451;-66
2022/07/03 04:59:37;;;;;;;58.90;3.60;;;;;;;;;;5071814;28;20455;-66
2022/07/03 05:02:05;;;;;;;60.77;3.70;;;;;;;;;;5072052;28;20970;-66
2022/07/03 05:04:33;;;;;;;59.60;3.40;;;;;;;;;;5071565;28;20555;-66
2022/07/03 05:07:00;;;;;;;59.70;4.00;;;;;;;;;;5071717;28;20489;-67
2022/07/03 05:09:28;;;;;;;60.00;3.50;;;;;;;;;;5071533;28;20451;-66
2022/07/03 05:11:56;;;;;;;60.37;4.23;;;;;;;;;;5071250;28;20480;-66
2022/07/03 05:14:24;;;;;;;59.70;3.90;;;;;;;;;;5070351;28;20909;-66
2022/07/03 05:16:52;;;;;;;59.50;3.87;;;;;;;;;;5071841;28;20450;-67
2022/07/03 05:19:19;;;;;;;70.83;3.77;;;;;;;;;;5071441;28;20447;-66
2022/07/03 05:21:49;;;;;;;59.37;3.87;;;;;;;;;;5071645;28;20462;-66
2022/07/03 05:24:17;;;;;;;59.10;3.67;;;;;;;;;;5071369;28;20509;-66
2022/07/03 05:26:46;;;;;;;60.30;3.73;;;;;;;;;;5071615;28;20484;-66
2022/07/03 05:29:13;;;;;;;65.50;4.33;;;;;;;;;;5071418;28;20443;-66
2022/07/03 05:31:43;;;;;;;59.23;3.50;;;;;;;;;;5073713;28;20483;-66
2022/07/03 05:34:12;;;;;;;60.30;3.30;;;;;;;;;;5075476;28;20550;-66
2022/07/03 05:36:40;;;;;;;59.47;3.70;;;;;;;;;;5075540;28;20444;-66
2022/07/03 05:41:55;;;;;;;59.57;3.50;;;;;;;;;;5075451;28;20939;-66
2022/07/03 05:44:25;;;;;;;58.87;3.07;;;;;;;;;;5075189;28;20475;-66
2022/07/03 05:46:54;;;;;;;59.40;3.50;;;;;;;;;;5075103;28;20488;-66
2022/07/03 05:49:21;;;;;;;59.90;3.60;;;;;;;;;;5074892;28;20458;-66
2022/07/03 05:51:48;;;;;;;59.17;3.53;;;;;;;;;;5075189;28;20791;-66
2022/07/03 05:54:18;;;;;;;59.27;3.50;;;;;;;;;;5075222;28;20751;-66
2022/07/03 05:56:45;;;;;;;60.90;3.80;;;;;;;;;;5075121;28;20475;-66
2022/07/03 05:59:13;;;;;;;59.50;3.60;;;;;;;;;;5074819;28;20447;-66
2022/07/03 06:01:40;;;;;;;59.17;3.27;;;;;;;;;;5075039;28;20852;-66
2022/07/03 06:04:08;;;;;;;59.17;3.40;;;;;;;;;;5074640;28;20474;-66
2022/07/03 06:06:36;;;;;;;59.67;3.33;;;;;;;;;;5075021;28;20489;-66
2022/07/03 06:09:05;;;;;;;58.93;3.40;;;;;;;;;;5074809;28;20530;-66
2022/07/03 06:11:37;;;;;;;62.23;3.43;;;;;;;;;;5074786;28;20968;-66
2022/07/03 06:14:06;;;;;;;58.70;3.27;;;;;;;;;;5074919;28;20478;-66
2022/07/03 06:16:34;;;;;;;59.40;3.53;;;;;;;;;;5074678;28;20452;-66
2022/07/03 06:19:01;;;;;;;58.63;2.93;;;;;;;;;;5073164;28;20450;-66
2022/07/03 06:21:29;;;;;;;58.63;3.20;;;;;;;;;;5074611;28;20534;-66
2022/07/03 06:23:57;;;;;;;59.00;3.10;;;;;;;;;;5074505;28;20471;-66
2022/07/03 06:26:24;;;;;;;59.17;3.30;;;;;;;;;;5073216;28;20481;-66
2022/07/03 06:28:52;;;;;;;59.00;2.90;;;;;;;;;;5074006;28;20465;-66
2022/07/03 06:31:20;;;;;;;58.80;3.40;;;;;;;;;;5074441;28;20453;-66
2022/07/03 06:33:47;;;;;;;59.37;3.27;;;;;;;;;;5074469;28;20467;-66
2022/07/03 06:36:15;;;;;;;58.97;3.53;;;;;;;;;;5074328;28;20447;-66
2022/07/03 06:38:44;;;;;;;59.17;3.27;;;;;;;;;;5073134;28;20497;-66
2022/07/03 06:41:11;;;;;;;63.20;3.47;;;;;;;;;;5074077;28;20452;-66
2022/07/03 06:43:38;;;;;;;59.37;3.47;;;;;;;;;;5072755;28;20475;-66
2022/07/03 06:46:07;;;;;;;60.27;3.13;;;;;;;;;;5074393;28;20451;-66
2022/07/03 06:48:34;;;;;;;58.67;2.67;;;;;;;;;;5074116;28;20474;-66
2022/07/03 06:51:04;;;;;;;59.87;3.37;;;;;;;;;;5072850;28;20534;-66
2022/07/03 06:53:32;;;;;;;59.10;3.50;;;;;;;;;;5073893;28;20467;-66
2022/07/03 06:56:02;;;;;;;59.50;3.30;;;;;;;;;;5073963;28;20440;-66
2022/07/03 06:58:34;;;;;;;59.10;3.43;;;;;;;;;;5073932;28;20859;-66
2022/07/03 07:01:01;;;;;;;58.97;3.07;;;;;;;;;;5074214;28;20447;-66
2022/07/03 07:03:29;;;;;;;59.07;3.30;;;;;;;;;;5073826;28;20992;-66
2022/07/03 07:05:56;;;;;;;58.83;3.23;;;;;;;;;;5073914;28;20533;-66
2022/07/03 07:08:23;;;;;;;58.47;3.00;;;;;;;;;;5072461;28;20907;-66
2022/07/03 07:10:51;;;;;;;58.90;3.10;;;;;;;;;;5073619;28;20477;-66
2022/07/03 07:13:19;;;;;;;58.47;2.80;;;;;;;;;;5072287;28;20558;-66
2022/07/03 07:15:49;;;;;;;58.60;2.70;;;;;;;;;;5073830;28;20439;-66
2022/07/03 07:18:17;;;;;;;58.80;2.80;;;;;;;;;;5073382;28;20447;-66
2022/07/03 07:20:45;;;;;;;60.17;3.33;;;;;;;;;;5073616;28;20451;-67
2022/07/03 07:23:13;;;;;;;58.10;2.70;;;;;;;;;;5073363;28;20805;-66
2022/07/03 07:25:40;;;;;;;59.70;3.10;;;;;;;;;;5073607;28;20439;-66
2022/07/03 07:28:09;;;;;;;58.57;2.97;;;;;;;;;;5073276;28;20479;-66
2022/07/03 07:30:39;;;;;;;59.43;2.87;;;;;;;;;;5073545;28;20758;-66
2022/07/03 07:33:06;;;;;;;58.47;2.57;;;;;;;;;;5073590;28;20473;-67
2022/07/03 07:35:33;;;;;;;58.50;3.03;;;;;;;;;;5073179;28;20447;-66
2022/07/03 07:38:01;;;;;;;62.50;3.00;;;;;;;;;;5071645;28;20534;-66
2022/07/03 07:40:28;;;;;;;58.60;3.17;;;;;;;;;;5073297;28;20454;-66
2022/07/03 07:42:56;;;;;;;59.77;3.30;;;;;;;;;;5072911;28;20463;-66
2022/07/03 07:45:23;;;;;;;58.37;2.90;;;;;;;;;;5072990;28;20467;-66
2022/07/03 07:47:52;;;;;;;58.40;2.90;;;;;;;;;;5072728;28;20483;-66
2022/07/03 07:50:19;;;;;;;59.30;2.87;;;;;;;;;;5073052;28;20585;-66
2022/07/03 07:52:46;;;;;;;59.00;2.97;;;;;;;;;;5072856;28;20558;-66
2022/07/03 07:55:13;;;;;;;58.50;2.50;;;;;;;;;;5072815;28;20444;-66
2022/07/03 07:57:41;;;;;;;58.77;2.80;;;;;;;;;;5072760;28;20444;-66
2022/07/03 08:00:09;;;;;;;58.43;3.10;;;;;;;;;;5072230;28;20451;-66
2022/07/03 08:05:38;;;;;;;58.47;2.73;;;;;;;;;;5072816;28;20621;-66
2022/07/03 08:08:14;;;;;;;59.20;3.37;;;;;;;;;;5072221;28;20479;-66
2022/07/03 08:10:42;;;;;;;58.80;2.40;;;;;;;;;;5072582;28;20475;-66
2022/07/03 08:13:10;;;;;;;58.17;2.47;;;;;;;;;;5072287;28;20474;-66
2022/07/03 08:15:38;;;;;;;59.00;2.80;;;;;;;;;;5071880;28;20763;-66
2022/07/03 08:18:05;;;;;;;58.40;2.37;;;;;;;;;;5072299;28;20447;-66
2022/07/03 08:20:34;;;;;;;58.60;2.60;;;;;;;;;;5072377;28;20440;-66
2022/07/03 08:23:03;;;;;;;58.27;2.70;;;;;;;;;;5072192;28;20459;-66
2022/07/03 08:25:30;;;;;;;59.27;2.30;;;;;;;;;;5072307;28;20448;-66
2022/07/03 08:27:58;;;;;;;58.60;2.50;;;;;;;;;;5071812;28;20610;-66
2022/07/03 08:30:29;;;;;;;58.53;2.70;;;;;;;;;;5072446;28;20456;-66
2022/07/03 08:33:00;;;;;;;58.50;2.50;;;;;;;;;;5072126;28;20465;-66
2022/07/03 08:35:29;;;;;;;58.57;2.60;;;;;;;;;;5072077;28;20445;-66
2022/07/03 08:37:58;;;;;;;57.77;2.50;;;;;;;;;;5070428;28;20446;-66
2022/07/03 08:40:27;;;;;;;58.50;2.63;;;;;;;;;;5072001;28;20464;-66
2022/07/03 08:42:57;;;;;;;58.10;2.50;;;;;;;;;;5072181;28;20465;-66
2022/07/03 08:45:26;;;;;;;58.13;2.43;;;;;;;;;;5071937;28;20460;-66
2022/07/03 08:47:55;;;;;;;57.70;2.17;;;;;;;;;;5071503;28;20489;-66
2022/07/03 08:50:24;;;;;;;57.90;2.40;;;;;;;;;;5071702;28;20447;-66
2022/07/03 08:52:52;;;;;;;58.00;2.20;;;;;;;;;;5071663;28;20834;-66
2022/07/03 08:55:21;;;;;;;58.17;2.40;;;;;;;;;;5071895;28;20822;-66
2022/07/03 08:57:51;;;;;;;57.47;2.20;;;;;;;;;;5071711;28;20442;-66
2022/07/03 09:00:19;;;;;;;58.23;2.40;;;;;;;;;;5071776;28;20451;-66
2022/07/03 09:02:48;;;;;;;57.97;2.30;;;;;;;;;;5071768;28;20521;-66
2022/07/03 09:05:16;;;;;;;57.77;2.30;;;;;;;;;;5071003;28;20533;-66
2022/07/03 09:07:44;;;;;;;58.50;2.70;;;;;;;;;;5071579;28;20484;-67
2022/07/03 09:10:12;;;;;;;57.97;2.40;;;;;;;;;;5071140;28;21040;-66
2022/07/03 09:12:41;;;;;;;58.73;2.50;;;;;;;;;;5071436;28;20455;-66
2022/07/03 09:15:10;;;;;;;58.20;2.50;;;;;;;;;;5071784;28;20456;-66
2022/07/03 09:17:45;;;;;;;58.27;2.17;;;;;;;;;;5071455;28;20443;-66
2022/07/03 09:20:12;;;;;;;57.67;2.40;;;;;;;;;;5071788;28;20901;-66
2022/07/03 09:22:39;;;;;;;58.17;2.37;;;;;;;;;;5071583;28;20458;-66
2022/07/03 09:25:08;;;;;;;57.80;1.90;;;;;;;;;;5071781;28;20450;-66
2022/07/03 09:27:35;;;;;;;58.00;2.00;;;;;;;;;;5071378;28;20521;-67
2022/07/03 09:30:05;;;;;;;58.00;2.20;;;;;;;;;;5071550;28;20443;-66
2022/07/03 09:32:34;;;;;;;57.83;2.20;;;;;;;;;;5071249;28;20468;-67
2022/07/03 09:35:11;;;;;;;57.83;2.00;;;;;;;;;;5070579;28;20447;-66
2022/07/03 09:37:41;;;;;;;58.20;2.10;;;;;;;;;;5071254;28;20447;-66
2022/07/03 09:40:11;;;;;;;57.97;2.10;;;;;;;;;;5071174;28;20454;-66
2022/07/03 09:42:41;;;;;;;58.50;2.20;;;;;;;;;;5071289;28;20829;-66
2022/07/03 09:45:15;;;;;;;57.37;2.03;;;;;;;;;;5071305;28;20459;-66
2022/07/03 09:47:44;;;;;;;57.67;2.20;;;;;;;;;;5071013;28;20487;-67
2022/07/03 09:50:13;;;;;;;57.60;2.27;;;;;;;;;;5071393;28;20456;-66
2022/07/03 09:52:44;;;;;;;57.63;2.07;;;;;;;;;;5071115;28;20512;-67
2022/07/03 09:55:20;;;;;;;57.63;2.00;;;;;;;;;;5069650;28;20479;-66
2022/07/03 09:58:01;;;;;;;58.87;2.30;;;;;;;;;;5070919;28;20450;-66
2022/07/03 10:03:17;;;;;;;58.10;2.40;;;;;;;;;;5070632;28;20910;-66
2022/07/03 10:05:45;;;;;;;57.67;1.97;;;;;;;;;;5070744;28;20443;-66
2022/07/03 10:08:20;;;;;;;57.87;2.23;;;;;;;;;;5069005;28;20541;-66
2022/07/03 10:10:49;;;;;;;57.90;2.10;;;;;;;;;;5070980;28;20447;-65
2022/07/03 10:13:27;;;;;;;60.70;2.20;;;;;;;;;;5070947;28;21044;-64
2022/07/03 10:16:01;;;;;;;57.90;1.90;;;;;;;;;;5070328;28;20469;-66
2022/07/03 10:18:33;;;;;;;57.93;2.23;;;;;;;;;;5074351;28;20967;-66
2022/07/03 10:21:01;;;;;;;57.87;2.00;;;;;;;;;;5072800;28;20447;-64
2022/07/03 10:23:31;;;;;;;58.07;2.37;;;;;;;;;;5074400;28;20516;-65
2022/07/03 10:28:54;;;;;;;59.13;2.07;;;;;;;;;;5031872;28;20523;-65
2022/07/03 10:46:16;;;;;;;56.70;1.80;;;;;;;;;;5030189;28;20448;-66
2022/07/03 10:49:23;;;;;;;57.00;2.30;;;;;;;;;;4971247;28;20494;-66
2022/07/03 10:52:02;;;;;;;56.60;1.80;;;;;;;;;;4913925;29;20498;-66
2022/07/03 10:55:03;;;;;;;57.10;2.20;;;;;;;;;;4915496;29;20514;-66
2022/07/03 10:57:31;;;;;;;56.47;1.83;;;;;;;;;;4913965;29;20462;-66
2022/07/03 11:00:07;;;;;;;56.57;2.00;;;;;;;;;;4947955;28;20507;-66
2022/07/03 11:02:43;;;;;;;57.27;2.20;;;;;;;;;;4972302;28;20452;-66
2022/07/03 11:05:29;;;;;;;56.90;2.10;;;;;;;;;;4971437;28;20454;-66
2022/07/03 11:08:32;;;;;;;56.80;2.30;;;;;;;;;;4970196;28;20588;-66
2022/07/03 11:14:22;;;;;;;56.33;2.10;;;;;;;;;;5011243;28;20551;-66
2022/07/03 11:16:52;;;;;;;56.47;1.90;;;;;;;;;;5015116;28;20495;-66
2022/07/03 11:19:30;;;;;;;56.30;2.10;;;;;;;;;;5030655;28;20450;-67
2022/07/03 11:22:12;;;;;;;56.10;1.90;;;;;;;;;;5029077;28;20444;-66
2022/07/03 11:24:59;;;;;;;56.40;2.00;;;;;;;;;;5031119;28;20572;-66
2022/07/03 11:30:21;;;;;;;56.90;2.17;;;;;;;;;;5071595;28;20569;-66
2022/07/03 11:32:57;;;;;;;56.37;2.20;;;;;;;;;;5073366;28;20470;-66
2022/07/03 11:35:43;;;;;;;57.20;1.87;;;;;;;;;;5073446;28;20492;-66
2022/07/03 11:38:15;;;;;;;56.43;1.80;;;;;;;;;;5072740;28;20435;-66
2022/07/03 11:40:47;;;;;;;56.70;2.00;;;;;;;;;;5073449;28;20501;-66
2022/07/03 11:43:14;;;;;;;56.77;2.07;;;;;;;;;;5073049;28;20473;-66
2022/07/03 11:45:45;;;;;;;56.70;1.80;;;;;;;;;;5073406;28;20886;-66
2022/07/03 11:48:15;;;;;;;58.17;2.10;;;;;;;;;;5072346;28;20581;-66
2022/07/03 11:53:28;;;;;;;56.37;2.07;;;;;;;;;;4990443;28;20833;-66
2022/07/03 11:56:02;;;;;;;56.67;2.20;;;;;;;;;;4990783;28;20462;-66
2022/07/03 11:58:45;;;;;;;56.83;1.90;;;;;;;;;;4990997;28;20482;-66
2022/07/03 12:01:15;;;;;;;56.43;2.03;;;;;;;;;;4991290;28;20451;-66
2022/07/03 12:03:44;;;;;;;56.47;2.00;;;;;;;;;;4991107;28;20511;-66
2022/07/03 12:06:12;;;;;;;56.50;2.10;;;;;;;;;;4991141;28;20459;-66
2022/07/03 12:08:46;;;;;;;56.17;1.97;;;;;;;;;;4990688;28;20447;-66
2022/07/03 12:11:15;;;;;;;56.80;2.10;;;;;;;;;;4974931;28;20456;-66
2022/07/03 12:13:42;;;;;;;57.70;2.30;;;;;;;;;;4973795;28;20861;-66
2022/07/03 12:16:10;;;;;;;56.70;2.00;;;;;;;;;;4991072;28;20461;-66
2022/07/03 12:18:50;;;;;;;57.47;2.30;;;;;;;;;;4990475;28;20493;-65
2022/07/03 12:21:37;;;;;;;56.87;2.10;;;;;;;;;;4974597;28;20490;-66
2022/07/03 12:24:20;;;;;;;56.87;2.10;;;;;;;;;;4988873;28;20861;-66
2022/07/03 12:26:51;;;;;;;57.10;2.30;;;;;;;;;;4990872;28;20466;-65
2022/07/03 12:29:23;;;;;;;57.20;2.60;;;;;;;;;;4974327;28;20455;-66
2022/07/03 12:31:52;;;;;;;58.17;2.30;;;;;;;;;;4990719;28;20938;-66
2022/07/03 12:34:20;;;;;;;56.53;2.00;;;;;;;;;;4989503;28;20471;-65
2022/07/03 12:37:03;;;;;;;56.60;2.00;;;;;;;;;;4988625;28;20530;-66
2022/07/03 12:39:50;;;;;;;56.77;2.20;;;;;;;;;;4988739;28;20486;-66
2022/07/03 12:42:21;;;;;;;56.37;1.93;;;;;;;;;;4990377;28;20981;-65
2022/07/03 12:45:08;;;;;;;56.80;1.93;;;;;;;;;;5040639;28;20978;-66
2022/07/03 12:47:36;;;;;;;56.97;2.10;;;;;;;;;;5051353;28;20510;-66
2022/07/03 12:50:10;;;;;;;57.10;2.13;;;;;;;;;;5052000;28;20437;-66
2022/07/03 12:56:03;;;;;;;59.17;3.47;;;;;;;;;;5051581;28;20960;-65
2022/07/03 13:01:33;;;;;;;56.90;2.10;;;;;;;;;;5051793;28;20881;-66
2022/07/03 13:04:03;;;;;;;56.70;2.20;;;;;;;;;;5051497;28;20471;-66
2022/07/03 13:06:41;;;;;;;57.40;2.30;;;;;;;;;;5051315;28;20452;-66
2022/07/03 13:09:08;;;;;;;56.67;2.20;;;;;;;;;;5050151;28;20468;-66
2022/07/03 13:11:36;;;;;;;56.87;2.17;;;;;;;;;;5051665;28;20773;-65
2022/07/03 13:14:09;;;;;;;57.17;2.00;;;;;;;;;;5051589;28;20468;-65
2022/07/03 13:16:45;;;;;;;57.50;2.10;;;;;;;;;;5050217;28;20535;-65
2022/07/03 13:19:14;;;;;;;57.17;2.03;;;;;;;;;;5050080;28;20577;-66
2022/07/03 13:21:43;;;;;;;57.50;2.30;;;;;;;;;;5051660;28;20448;-65
2022/07/03 13:24:11;;;;;;;57.17;2.17;;;;;;;;;;5050139;28;20465;-65
2022/07/03 13:26:40;;;;;;;57.67;2.07;;;;;;;;;;5050478;28;20453;-65
2022/07/03 13:29:09;;;;;;;57.17;1.87;;;;;;;;;;5051428;28;20518;-65
2022/07/03 13:31:36;;;;;;;56.97;1.83;;;;;;;;;;5051534;28;20452;-65
2022/07/03 13:34:03;;;;;;;57.00;2.00;;;;;;;;;;5051444;28;20564;-65
2022/07/03 13:36:35;;;;;;;56.83;2.10;;;;;;;;;;5049647;28;20456;-65
2022/07/03 13:39:03;;;;;;;57.10;2.30;;;;;;;;;;5051023;28;21123;-65
2022/07/03 13:41:32;;;;;;;57.50;1.90;;;;;;;;;;5051516;28;20441;-66
2022/07/03 13:44:00;;;;;;;57.03;2.00;;;;;;;;;;5049797;28;20480;-66
2022/07/03 13:46:29;;;;;;;57.10;2.20;;;;;;;;;;5051550;28;20455;-67
2022/07/03 13:48:56;;;;;;;56.90;1.90;;;;;;;;;;5051257;28;20545;-67
2022/07/03 13:51:23;;;;;;;57.07;2.17;;;;;;;;;;5052108;28;20448;-67
2022/07/03 13:53:51;;;;;;;56.73;2.10;;;;;;;;;;5055626;28;20467;-67
2022/07/03 13:56:19;;;;;;;56.07;2.10;;;;;;;;;;5055133;28;20448;-67
2022/07/03 13:58:47;;;;;;;57.57;2.10;;;;;;;;;;5054643;28;20492;-67
2022/07/03 14:01:17;;;;;;;56.83;2.20;;;;;;;;;;5055226;28;20455;-67
2022/07/03 14:03:46;;;;;;;56.77;2.30;;;;;;;;;;5055068;28;20878;-67
2022/07/03 14:06:13;;;;;;;56.50;2.30;;;;;;;;;;5055114;28;20531;-65
2022/07/03 14:08:41;;;;;;;56.17;2.00;;;;;;;;;;5054744;28;20828;-65
2022/07/03 14:11:08;;;;;;;56.33;1.80;;;;;;;;;;5054888;28;20526;-65
2022/07/03 14:13:35;;;;;;;56.57;1.90;;;;;;;;;;5054718;28;20463;-65
2022/07/03 14:16:05;;;;;;;58.30;2.37;;;;;;;;;;5054768;28;20932;-64
2022/07/03 14:18:32;;;;;;;57.63;2.00;;;;;;;;;;5054481;28;20535;-65
2022/07/03 14:21:01;;;;;;;56.67;2.30;;;;;;;;;;5054890;28;20570;-66
2022/07/03 14:23:29;;;;;;;56.47;2.00;;;;;;;;;;5054624;28;20471;-66
2022/07/03 14:25:56;;;;;;;56.17;2.07;;;;;;;;;;5054567;28;20452;-66
2022/07/03 14:33:54;;;;;;;56.20;2.00;;;;;;;;;;5054412;28;20442;-66
2022/07/03 14:36:24;;;;;;;56.17;2.37;;;;;;;;;;5054406;28;20542;-66
2022/07/03 14:38:53;;;;;;;63.43;2.40;;;;;;;;;;5054270;28;20491;-66
2022/07/03 14:41:21;;;;;;;56.90;2.37;;;;;;;;;;5054357;28;20944;-66
2022/07/03 14:43:48;;;;;;;56.87;2.40;;;;;;;;;;5053898;28;21019;-66
2022/07/03 14:46:15;;;;;;;56.33;2.60;;;;;;;;;;5054241;28;20824;-66
2022/07/03 14:48:42;;;;;;;57.37;2.40;;;;;;;;;;5053820;28;20770;-65
2022/07/03 14:51:10;;;;;;;59.93;5.20;;;;;;;;;;5054438;28;20452;-66
2022/07/03 14:53:38;;;;;;;57.50;3.67;;;;;;;;;;5054129;28;20464;-66
2022/07/03 14:56:08;;;;;;;56.53;2.10;;;;;;;;;;5054207;28;20444;-65
2022/07/03 14:58:36;;;;;;;56.60;2.40;;;;;;;;;;5053644;28;20830;-66
2022/07/03 15:01:08;;;;;;;56.30;2.10;;;;;;;;;;5053890;28;20452;-66
2022/07/03 15:03:35;;;;;;;57.00;2.50;;;;;;;;;;5052755;28;20468;-65
2022/07/03 15:06:05;;;;;;;56.70;2.30;;;;;;;;;;5053843;28;20987;-65
2022/07/03 15:08:46;;;;;;;56.60;2.10;;;;;;;;;;5053645;28;20710;-66
2022/07/03 15:12:26;;;;;;;56.50;2.00;;;;;;;;;;5053847;28;20486;-65
2022/07/03 15:14:06;;;;;;;56.70;2.20;;;;;;;;;;5052895;28;20472;-65
2022/07/03 15:16:34;;;;;;;56.43;1.90;;;;;;;;;;5038341;28;20445;-65
2022/07/03 15:19:08;;;;;;;56.67;2.17;;;;;;;;;;5033232;28;21092;-65
2022/07/03 15:21:37;;;;;;;56.57;2.30;;;;;;;;;;5032511;28;20454;-66
2022/07/03 15:24:07;;;;;;;57.07;2.23;;;;;;;;;;5033561;28;20477;-65
2022/07/03 15:26:35;;;;;;;57.13;2.40;;;;;;;;;;5033894;28;20452;-65
2022/07/03 15:29:06;;;;;;;57.87;2.13;;;;;;;;;;5033400;28;20511;-65
2022/07/03 15:31:36;;;;;;;58.13;2.30;;;;;;;;;;5033538;28;20969;-66
2022/07/03 15:34:04;;;;;;;57.40;2.27;;;;;;;;;;5033243;28;20982;-65
2022/07/03 15:36:36;;;;;;;57.37;2.40;;;;;;;;;;5033328;28;20453;-65